createdAt,value
2022-09-06T00:00:44.945Z,66.66
2022-09-06T00:01:44.935Z,66.76
2022-09-06T00:02:45.045Z,67.29
2022-09-06T00:03:45.024Z,67.69
2022-09-06T00:04:44.907Z,67.06
2022-09-06T00:05:44.895Z,67.40
2022-09-06T00:06:44.890Z,67.46
2022-09-06T00:07:45.811Z,67.19
2022-09-06T00:08:44.866Z,67.59
2022-09-06T00:09:44.862Z,68.66
2022-09-06T00:10:44.873Z,67.79
2022-09-06T00:11:44.823Z,67.79
2022-09-06T00:12:44.816Z,67.79
2022-09-06T00:13:44.833Z,67.79
2022-09-06T00:14:44.800Z,67.59
2022-09-06T00:15:44.921Z,68.29
2022-09-06T00:16:45.328Z,68.29
2022-09-06T00:17:44.765Z,67.99
2022-09-06T00:18:44.851Z,67.79
2022-09-06T00:19:44.754Z,67.29
2022-09-06T00:20:44.749Z,67.69
2022-09-06T00:21:44.719Z,68.69
2022-09-06T00:22:44.704Z,67.69
2022-09-06T00:23:44.718Z,67.79
2022-09-06T00:24:44.680Z,67.89
2022-09-06T00:25:45.312Z,68.49
2022-09-06T00:26:44.659Z,68.59
2022-09-06T00:27:44.658Z,68.69
2022-09-06T00:28:44.639Z,67.99
2022-09-06T00:29:44.644Z,68.89
2022-09-06T00:30:44.687Z,68.79
2022-09-06T00:31:44.598Z,68.79
2022-09-06T00:32:44.614Z,68.79
2022-09-06T00:33:44.584Z,68.32
2022-09-06T00:34:44.582Z,68.79
2022-09-06T00:35:44.562Z,68.79
2022-09-06T00:36:44.555Z,69.09
2022-09-06T00:37:44.538Z,68.79
2022-09-06T00:38:44.556Z,68.49
2022-09-06T00:39:45.342Z,68.69
2022-09-06T00:40:47.323Z,68.29
2022-09-06T00:41:44.494Z,68.39
2022-09-06T00:42:44.852Z,68.59
2022-09-06T00:43:47.840Z,69.19
2022-09-06T00:44:44.471Z,68.69
2022-09-06T00:45:44.447Z,68.82
2022-09-06T00:46:44.509Z,68.73
2022-09-06T00:47:44.430Z,69.29
2022-09-06T00:48:45.373Z,69.29
2022-09-06T00:49:45.328Z,69.02
2022-09-06T00:50:44.400Z,69.09
2022-09-06T00:51:44.409Z,68.79
2022-09-06T00:52:47.317Z,69.09
2022-09-06T00:53:44.373Z,68.59
2022-09-06T00:54:44.857Z,68.49
2022-09-06T00:55:44.345Z,69.29
2022-09-06T00:56:44.328Z,68.89
2022-09-06T00:57:44.324Z,68.69
2022-09-06T00:58:44.301Z,69.09
2022-09-06T00:59:44.297Z,69.29
2022-09-06T01:00:44.303Z,69.19
2022-09-06T01:01:45.025Z,69.09
2022-09-06T01:02:44.917Z,69.29
2022-09-06T01:03:44.252Z,69.29
2022-09-06T01:04:44.270Z,69.39
2022-09-06T01:05:45.301Z,69.43
2022-09-06T01:06:44.221Z,69.19
2022-09-06T01:07:44.818Z,69.49
2022-09-06T01:08:44.205Z,69.43
2022-09-06T01:09:44.182Z,69.43
2022-09-06T01:10:44.196Z,69.62
2022-09-06T01:11:44.353Z,69.82
2022-09-06T01:12:44.363Z,69.82
2022-09-06T01:13:44.137Z,69.82
2022-09-06T01:14:44.139Z,69.93
2022-09-06T01:15:50.878Z,69.53
2022-09-06T01:16:45.187Z,69.82
2022-09-06T01:17:44.094Z,69.62
2022-09-06T01:18:44.080Z,69.93
2022-09-06T01:19:44.819Z,69.62
2022-09-06T01:20:44.075Z,69.82
2022-09-06T01:21:44.073Z,69.73
2022-09-06T01:22:44.070Z,69.73
2022-09-06T01:23:44.035Z,69.73
2022-09-06T01:24:44.022Z,69.93
2022-09-06T01:25:44.012Z,69.82
2022-09-06T01:26:44.834Z,69.93
2022-09-06T01:27:43.987Z,70.32
2022-09-06T01:28:44.007Z,69.93
2022-09-06T01:29:43.965Z,69.73
2022-09-06T01:30:44.019Z,69.82
2022-09-06T01:31:46.837Z,70.53
2022-09-06T01:32:43.934Z,69.93
2022-09-06T01:33:43.941Z,70.32
2022-09-06T01:34:43.932Z,70.43
2022-09-06T01:35:43.901Z,70.53
2022-09-06T01:37:06.306Z,70.03
2022-09-06T01:37:44.876Z,70.03
2022-09-06T01:38:43.861Z,70.53
2022-09-06T01:39:44.913Z,69.93
2022-09-06T01:40:44.116Z,70.16
2022-09-06T01:41:43.839Z,70.32
2022-09-06T01:42:43.818Z,70.66
2022-09-06T01:43:43.821Z,70.43
2022-09-06T01:44:44.328Z,70.32
2022-09-06T01:45:43.835Z,70.73
2022-09-06T01:46:43.796Z,70.26
2022-09-06T01:47:43.776Z,70.56
2022-09-06T01:48:43.864Z,70.16
2022-09-06T01:49:43.751Z,70.86
2022-09-06T01:50:43.725Z,70.83
2022-09-06T01:51:43.729Z,70.86
2022-09-06T01:52:43.717Z,70.76
2022-09-06T01:53:44.726Z,70.43
2022-09-06T01:54:43.712Z,70.56
2022-09-06T01:55:43.718Z,70.43
2022-09-06T01:56:43.671Z,70.62
2022-09-06T01:57:46.336Z,70.76
2022-09-06T01:58:43.648Z,70.76
2022-09-06T01:59:44.655Z,70.66
2022-09-06T02:00:46.335Z,70.32
2022-09-06T02:01:43.721Z,70.32
2022-09-06T02:02:43.690Z,70.73
2022-09-06T02:03:43.626Z,71.33
2022-09-06T02:04:43.582Z,71.16
2022-09-06T02:05:43.582Z,70.96
2022-09-06T02:06:43.561Z,71.16
2022-09-06T02:07:43.575Z,71.06
2022-09-06T02:08:43.535Z,70.92
2022-09-06T02:09:45.358Z,70.76
2022-09-06T02:10:43.522Z,71.06
2022-09-06T02:11:44.339Z,70.32
2022-09-06T02:12:44.337Z,70.06
2022-09-06T02:13:43.486Z,69.76
2022-09-06T02:14:43.467Z,69.73
2022-09-06T02:15:43.464Z,69.73
2022-09-06T02:16:43.500Z,69.73
2022-09-06T02:17:46.871Z,69.12
2022-09-06T02:18:43.866Z,68.82
2022-09-06T02:19:43.423Z,68.62
2022-09-06T02:20:43.407Z,68.59
2022-09-06T02:21:43.390Z,67.99
2022-09-06T02:22:43.384Z,68.09
2022-09-06T02:23:43.398Z,67.59
2022-09-06T02:24:43.388Z,67.09
2022-09-06T02:25:43.356Z,66.69
2022-09-06T02:26:43.373Z,66.39
2022-09-06T02:27:43.325Z,66.89
2022-09-06T02:28:43.336Z,66.99
2022-09-06T02:29:43.399Z,66.39
2022-09-06T02:30:43.890Z,66.09
2022-09-06T02:31:43.841Z,65.69
2022-09-06T02:32:43.256Z,65.89
2022-09-06T02:33:43.273Z,65.99
2022-09-06T02:34:43.269Z,65.79
2022-09-06T02:35:43.270Z,65.19
2022-09-06T02:36:43.864Z,64.86
2022-09-06T02:37:43.836Z,64.79
2022-09-06T02:38:43.193Z,64.89
2022-09-06T02:39:43.247Z,64.49
2022-09-06T02:40:43.182Z,64.46
2022-09-06T02:41:43.199Z,63.39
2022-09-06T02:42:43.204Z,63.26
2022-09-06T02:43:43.162Z,63.46
2022-09-06T02:44:43.144Z,63.69
2022-09-06T02:45:43.157Z,63.46
2022-09-06T02:46:43.120Z,62.96
2022-09-06T02:47:43.134Z,63.46
2022-09-06T02:48:43.100Z,63.17
2022-09-06T02:49:45.849Z,63.66
2022-09-06T02:50:43.077Z,63.36
2022-09-06T02:51:43.103Z,63.46
2022-09-06T02:52:43.851Z,63.26
2022-09-06T02:53:43.047Z,63.39
2022-09-06T02:54:43.036Z,63.56
2022-09-06T02:55:43.021Z,63.56
2022-09-06T02:56:43.014Z,63.56
2022-09-06T02:57:43.012Z,63.66
2022-09-06T02:58:42.986Z,63.46
2022-09-06T02:59:45.838Z,63.29
2022-09-06T03:00:43.001Z,64.46
2022-09-06T03:01:43.049Z,63.89
2022-09-06T03:02:43.029Z,63.89
2022-09-06T03:03:43.842Z,64.29
2022-09-06T03:04:44.904Z,63.49
2022-09-06T03:05:49.838Z,64.69
2022-09-06T03:06:43.849Z,64.49
2022-09-06T03:07:43.843Z,64.19
2022-09-06T03:08:42.887Z,64.89
2022-09-06T03:09:42.884Z,64.79
2022-09-06T03:10:42.865Z,64.99
2022-09-06T03:11:45.351Z,64.89
2022-09-06T03:12:42.878Z,65.09
2022-09-06T03:13:43.352Z,64.89
2022-09-06T03:14:42.828Z,65.59
2022-09-06T03:15:42.807Z,65.39
2022-09-06T03:16:42.933Z,65.52
2022-09-06T03:17:42.779Z,65.62
2022-09-06T03:18:42.766Z,66.02
2022-09-06T03:19:42.764Z,66.13
2022-09-06T03:20:45.353Z,65.72
2022-09-06T03:21:42.767Z,65.92
2022-09-06T03:22:42.721Z,66.02
2022-09-06T03:23:42.715Z,65.92
2022-09-06T03:24:42.707Z,65.72
2022-09-06T03:25:42.710Z,65.72
2022-09-06T03:26:42.709Z,66.02
2022-09-06T03:27:42.680Z,65.72
2022-09-06T03:28:42.665Z,65.83
2022-09-06T03:29:42.653Z,66.02
2022-09-06T03:30:42.722Z,66.25
2022-09-06T03:31:42.633Z,66.96
2022-09-06T03:32:42.873Z,67.25
2022-09-06T03:33:49.346Z,67.36
2022-09-06T03:34:42.617Z,67.25
2022-09-06T03:35:42.888Z,67.05
2022-09-06T03:36:42.577Z,67.36
2022-09-06T03:37:42.558Z,66.96
2022-09-06T03:38:42.880Z,67.16
2022-09-06T03:39:42.620Z,67.36
2022-09-06T03:40:42.529Z,67.46
2022-09-06T03:41:42.521Z,67.55
2022-09-06T03:42:42.515Z,67.55
2022-09-06T03:43:42.517Z,67.59
2022-09-06T03:44:42.495Z,67.96
2022-09-06T03:45:42.926Z,67.55
2022-09-06T03:46:42.465Z,68.16
2022-09-06T03:47:42.448Z,67.59
2022-09-06T03:48:42.446Z,68.19
2022-09-06T03:49:43.359Z,68.09
2022-09-06T03:50:43.351Z,68.49
2022-09-06T03:51:42.885Z,68.19
2022-09-06T03:52:42.393Z,68.29
2022-09-06T03:53:42.392Z,68.89
2022-09-06T03:54:42.392Z,68.89
2022-09-06T03:55:42.373Z,69.19
2022-09-06T03:56:42.354Z,69.49
2022-09-06T03:57:42.346Z,69.49
2022-09-06T03:58:42.357Z,69.19
2022-09-06T03:59:42.327Z,69.89
2022-09-06T04:00:45.015Z,69.29
2022-09-06T04:01:42.336Z,69.49
2022-09-06T04:02:42.390Z,69.79
2022-09-06T04:03:42.273Z,69.99
2022-09-06T04:04:42.273Z,69.93
2022-09-06T04:05:42.256Z,70.62
2022-09-06T04:06:42.275Z,70.62
2022-09-06T04:07:42.250Z,70.62
2022-09-06T04:08:42.240Z,70.43
2022-09-06T04:09:42.212Z,70.93
2022-09-06T04:10:42.199Z,70.93
2022-09-06T04:11:45.029Z,71.23
2022-09-06T04:12:42.181Z,71.03
2022-09-06T04:13:42.172Z,71.12
2022-09-06T04:14:42.156Z,71.23
2022-09-06T04:15:42.145Z,71.43
2022-09-06T04:16:42.169Z,71.33
2022-09-06T04:17:42.389Z,71.53
2022-09-06T04:18:42.126Z,71.43
2022-09-06T04:19:42.110Z,71.63
2022-09-06T04:20:42.386Z,71.63
2022-09-06T04:21:42.077Z,71.93
2022-09-06T04:22:42.119Z,71.63
2022-09-06T04:23:42.051Z,72.06
2022-09-06T04:24:42.049Z,71.66
2022-09-06T04:25:42.039Z,72.13
2022-09-06T04:26:42.026Z,71.73
2022-09-06T04:27:42.021Z,71.93
2022-09-06T04:28:42.023Z,72.27
2022-09-06T04:29:42.018Z,72.66
2022-09-06T04:30:42.867Z,73.16
2022-09-06T04:31:42.020Z,72.83
2022-09-06T04:32:41.962Z,72.77
2022-09-06T04:33:41.946Z,72.97
2022-09-06T04:34:41.949Z,73.57
2022-09-06T04:35:42.866Z,73.57
2022-09-06T04:36:47.630Z,74.27
2022-09-06T04:37:45.864Z,74.27
2022-09-06T04:38:41.930Z,74.60
2022-09-06T04:39:41.940Z,74.90
2022-09-06T04:40:41.883Z,75.21
2022-09-06T04:41:41.872Z,74.80
2022-09-06T04:42:41.844Z,75.45
2022-09-06T04:43:41.830Z,76.04
2022-09-06T04:44:41.827Z,76.01
2022-09-06T04:45:41.929Z,75.81
2022-09-06T04:46:44.365Z,75.81
2022-09-06T04:47:41.785Z,76.01
2022-09-06T04:48:41.802Z,75.51
2022-09-06T04:49:41.764Z,76.11
2022-09-06T04:50:41.762Z,76.21
2022-09-06T04:51:41.740Z,76.31
2022-09-06T04:52:41.721Z,76.61
2022-09-06T04:53:41.739Z,76.51
2022-09-06T04:54:41.718Z,76.81
2022-09-06T04:55:41.720Z,77.01
2022-09-06T04:56:41.687Z,76.81
2022-09-06T04:57:45.165Z,77.51
2022-09-06T04:58:41.658Z,76.71
2022-09-06T04:59:41.642Z,76.81
2022-09-06T05:00:41.713Z,77.11
2022-09-06T05:01:41.659Z,77.41
2022-09-06T05:02:41.715Z,77.11
2022-09-06T05:03:41.597Z,77.72
2022-09-06T05:04:41.587Z,77.31
2022-09-06T05:05:41.588Z,77.28
2022-09-06T05:06:41.597Z,77.51
2022-09-06T05:07:41.588Z,77.51
2022-09-06T05:08:41.548Z,76.98
2022-09-06T05:09:41.542Z,77.17
2022-09-06T05:10:41.528Z,77.41
2022-09-06T05:11:41.532Z,77.37
2022-09-06T05:12:44.305Z,77.28
2022-09-06T05:13:41.903Z,77.48
2022-09-06T05:14:42.365Z,76.98
2022-09-06T05:15:41.460Z,76.78
2022-09-06T05:16:41.505Z,77.51
2022-09-06T05:17:41.456Z,76.71
2022-09-06T05:18:41.443Z,77.01
2022-09-06T05:19:42.377Z,77.21
2022-09-06T05:20:41.411Z,77.51
2022-09-06T05:21:42.365Z,78.02
2022-09-06T05:22:41.401Z,77.45
2022-09-06T05:23:41.403Z,77.51
2022-09-06T05:24:41.361Z,77.91
2022-09-06T05:25:41.358Z,78.22
2022-09-06T05:26:41.336Z,78.11
2022-09-06T05:27:41.330Z,78.52
2022-09-06T05:28:41.332Z,79.22
2022-09-06T05:29:41.333Z,80.12
2022-09-06T05:30:41.295Z,80.18
2022-09-06T05:31:41.392Z,80.72
2022-09-06T05:32:41.269Z,81.23
2022-09-06T05:33:41.260Z,81.73
2022-09-06T05:34:41.280Z,80.92
2022-09-06T05:35:41.244Z,80.72
2022-09-06T05:36:41.226Z,81.42
2022-09-06T05:37:41.208Z,80.42
2022-09-06T05:38:41.197Z,81.32
2022-09-06T05:39:41.227Z,81.23
2022-09-06T05:40:41.192Z,81.62
2022-09-06T05:41:41.168Z,81.82
2022-09-06T05:42:41.160Z,81.23
2022-09-06T05:43:41.151Z,81.12
2022-09-06T05:44:41.143Z,80.72
2022-09-06T05:45:41.191Z,81.82
2022-09-06T05:46:41.106Z,81.12
2022-09-06T05:47:41.884Z,80.92
2022-09-06T05:48:41.084Z,80.86
2022-09-06T05:49:41.094Z,81.16
2022-09-06T05:50:41.050Z,81.26
2022-09-06T05:51:41.081Z,81.26
2022-09-06T05:52:41.054Z,80.66
2022-09-06T05:53:41.883Z,81.87
2022-09-06T05:54:41.024Z,82.76
2022-09-06T05:55:42.980Z,82.06
2022-09-06T05:56:41.044Z,82.76
2022-09-06T05:57:41.884Z,84.37
2022-09-06T05:58:40.987Z,83.57
2022-09-06T05:59:40.971Z,84.27
2022-09-06T06:00:41.877Z,85.47
2022-09-06T06:01:40.970Z,85.97
2022-09-06T06:02:41.986Z,86.44
2022-09-06T06:03:40.924Z,86.84
2022-09-06T06:04:40.905Z,86.98
2022-09-06T06:05:40.901Z,85.78
2022-09-06T06:06:40.884Z,86.52
2022-09-06T06:07:40.921Z,86.52
2022-09-06T06:08:40.867Z,86.32
2022-09-06T06:09:40.914Z,85.41
2022-09-06T06:10:41.384Z,85.52
2022-09-06T06:11:43.387Z,86.52
2022-09-06T06:12:40.837Z,85.92
2022-09-06T06:13:40.811Z,85.38
2022-09-06T06:14:47.384Z,85.97
2022-09-06T06:15:41.405Z,88.23
2022-09-06T06:16:40.823Z,86.38
2022-09-06T06:17:40.777Z,87.08
2022-09-06T06:18:41.792Z,87.12
2022-09-06T06:19:40.734Z,87.42
2022-09-06T06:20:40.725Z,87.87
2022-09-06T06:21:40.708Z,89.31
2022-09-06T06:22:40.702Z,89.37
2022-09-06T06:23:40.723Z,89.72
2022-09-06T06:24:41.381Z,90.68
2022-09-06T06:25:40.669Z,90.92
2022-09-06T06:26:41.386Z,91.78
2022-09-06T06:27:40.648Z,91.99
2022-09-06T06:28:40.917Z,91.74
2022-09-06T06:29:41.392Z,91.94
2022-09-06T06:30:40.607Z,90.33
2022-09-06T06:31:41.412Z,90.44
2022-09-06T06:32:40.588Z,90.64
2022-09-06T06:33:40.607Z,90.94
2022-09-06T06:34:41.381Z,91.09
2022-09-06T06:35:40.555Z,90.69
2022-09-06T06:36:41.381Z,88.18
2022-09-06T06:37:40.559Z,88.18
2022-09-06T06:38:43.910Z,88.79
2022-09-06T06:39:41.610Z,89.89
2022-09-06T06:40:40.494Z,89.59
2022-09-06T06:41:40.482Z,90.79
2022-09-06T06:42:41.379Z,90.05
2022-09-06T06:43:41.389Z,89.75
2022-09-06T06:44:41.389Z,89.75
2022-09-06T06:45:40.501Z,89.45
2022-09-06T06:46:40.421Z,87.80
2022-09-06T06:48:01.421Z,87.30
2022-09-06T06:48:40.398Z,87.60
2022-09-06T06:49:45.410Z,87.00
2022-09-06T06:50:40.408Z,87.00
2022-09-06T06:51:40.412Z,86.30
2022-09-06T06:52:40.356Z,85.15
2022-09-06T06:53:40.348Z,86.35
2022-09-06T06:54:40.888Z,85.35
2022-09-06T06:55:40.334Z,85.85
2022-09-06T06:56:40.311Z,85.25
2022-09-06T06:57:40.891Z,85.05
2022-09-06T06:58:40.302Z,84.35
2022-09-06T06:59:40.895Z,84.55
2022-09-06T07:00:40.297Z,83.15
2022-09-06T07:01:43.045Z,84.55
2022-09-06T07:02:40.895Z,82.65
2022-09-06T07:03:40.224Z,79.94
2022-09-06T07:04:40.245Z,81.15
2022-09-06T07:06:16.684Z,82.81
2022-09-06T07:07:41.892Z,81.21
2022-09-06T07:08:42.900Z,81.11
2022-09-06T07:10:41.152Z,80.07
2022-09-06T07:11:40.160Z,79.71
2022-09-06T07:12:40.896Z,80.07
2022-09-06T07:13:40.131Z,79.77
2022-09-06T07:14:40.153Z,79.67
2022-09-06T07:15:40.887Z,78.93
2022-09-06T07:16:40.137Z,79.53
2022-09-06T07:17:40.083Z,78.63
2022-09-06T07:18:42.899Z,77.93
2022-09-06T07:21:41.029Z,77.83
2022-09-06T07:22:40.047Z,77.86
2022-09-06T07:24:46.894Z,78.17
2022-09-06T07:25:39.998Z,78.47
2022-09-06T07:27:49.106Z,77.76
2022-09-06T07:28:43.897Z,78.17
2022-09-06T07:29:41.008Z,78.27
2022-09-06T07:30:39.965Z,77.67
2022-09-06T07:32:40.965Z,78.06
2022-09-06T07:33:40.892Z,77.97
2022-09-06T07:34:39.889Z,77.56
2022-09-06T07:35:39.871Z,78.63
2022-09-06T07:36:40.896Z,78.36
2022-09-06T07:37:39.843Z,77.56
2022-09-06T07:38:39.853Z,78.36
2022-09-06T07:39:39.879Z,77.67
2022-09-06T07:40:40.398Z,77.26
2022-09-06T07:41:40.399Z,77.03
2022-09-06T07:42:39.936Z,77.26
2022-09-06T07:43:40.399Z,77.86
2022-09-06T07:44:39.776Z,77.53
2022-09-06T07:45:40.807Z,77.03
2022-09-06T07:46:39.844Z,77.43
2022-09-06T07:48:40.733Z,74.83
2022-09-06T07:49:40.233Z,74.93
2022-09-06T07:51:39.726Z,75.63
2022-09-06T07:53:13.031Z,76.43
2022-09-06T07:53:40.673Z,75.69
2022-09-06T07:54:40.424Z,74.89
2022-09-06T07:55:39.639Z,74.43
2022-09-06T07:56:39.665Z,74.49
2022-09-06T07:57:39.963Z,74.79
2022-09-06T07:58:41.424Z,74.79
2022-09-06T07:59:42.877Z,74.96
2022-09-06T08:00:42.502Z,74.55
2022-09-06T08:01:39.658Z,74.46
2022-09-06T08:02:40.909Z,73.96
2022-09-06T08:03:39.573Z,74.36
2022-09-06T08:04:39.579Z,74.66
2022-09-06T08:07:41.440Z,73.25
2022-09-06T08:09:40.524Z,73.12
2022-09-06T08:10:39.501Z,74.12
2022-09-06T08:11:39.495Z,73.22
2022-09-06T08:12:39.467Z,73.12
2022-09-06T08:13:39.510Z,73.42
2022-09-06T08:14:39.444Z,73.02
2022-09-06T08:15:41.633Z,72.72
2022-09-06T08:16:42.512Z,73.42
2022-09-06T08:17:40.394Z,72.82
2022-09-06T08:18:39.396Z,72.78
2022-09-06T08:19:39.425Z,72.29
2022-09-06T08:20:39.909Z,72.89
2022-09-06T08:21:39.389Z,71.89
2022-09-06T08:22:39.362Z,71.06
2022-09-06T08:23:41.913Z,71.75
2022-09-06T08:24:39.905Z,71.66
2022-09-06T08:25:39.347Z,71.66
2022-09-06T08:26:39.351Z,71.15
2022-09-06T08:27:39.305Z,72.62
2022-09-06T08:28:39.306Z,72.12
2022-09-06T08:29:39.911Z,71.52
2022-09-06T08:30:39.298Z,71.12
2022-09-06T08:31:39.331Z,70.42
2022-09-06T08:32:39.254Z,69.62
2022-09-06T08:33:39.247Z,70.32
2022-09-06T08:34:39.233Z,69.73
2022-09-06T08:35:39.220Z,69.82
2022-09-06T08:36:39.449Z,71.32
2022-09-06T08:37:39.198Z,71.62
2022-09-06T08:38:39.189Z,70.39
2022-09-06T08:39:39.514Z,69.89
2022-09-06T08:40:39.173Z,70.19
2022-09-06T08:41:39.172Z,70.29
2022-09-06T08:42:39.143Z,69.69
2022-09-06T08:43:39.132Z,70.09
2022-09-06T08:45:40.105Z,69.36
2022-09-06T08:46:39.147Z,69.76
2022-09-06T08:47:39.086Z,70.65
2022-09-06T08:48:39.090Z,69.66
2022-09-06T08:49:39.109Z,69.46
2022-09-06T08:50:39.915Z,68.76
2022-09-06T08:51:39.036Z,69.86
2022-09-06T08:52:45.255Z,69.86
2022-09-06T08:53:40.917Z,69.96
2022-09-06T08:54:39.003Z,69.73
2022-09-06T08:55:39.921Z,69.13
2022-09-06T08:56:38.989Z,68.23
2022-09-06T08:57:40.416Z,68.13
2022-09-06T08:58:39.944Z,67.50
2022-09-06T08:59:38.951Z,66.80
2022-09-06T09:00:39.999Z,67.50
2022-09-06T09:01:38.989Z,66.71
2022-09-06T09:02:38.916Z,67.30
2022-09-06T09:03:38.957Z,68.20
2022-09-06T09:04:38.895Z,67.27
2022-09-06T09:05:38.900Z,67.80
2022-09-06T09:06:39.411Z,66.50
2022-09-06T09:07:38.867Z,67.86
2022-09-06T09:08:38.916Z,66.77
2022-09-06T09:09:38.851Z,66.47
2022-09-06T09:10:41.413Z,66.87
2022-09-06T09:11:40.886Z,66.87
2022-09-06T09:12:38.807Z,66.47
2022-09-06T09:13:38.807Z,65.58
2022-09-06T09:14:38.799Z,64.98
2022-09-06T09:15:40.535Z,65.38
2022-09-06T09:16:38.875Z,65.68
2022-09-06T09:17:39.414Z,65.35
2022-09-06T09:18:45.422Z,65.58
2022-09-06T09:19:42.480Z,64.85
2022-09-06T09:20:38.943Z,64.52
2022-09-06T09:21:38.752Z,62.73
2022-09-06T09:22:38.723Z,64.42
2022-09-06T09:23:38.693Z,62.53
2022-09-06T09:24:38.677Z,62.63
2022-09-06T09:25:38.674Z,64.59
2022-09-06T09:26:38.951Z,62.21
2022-09-06T09:27:38.649Z,62.80
2022-09-06T09:28:38.641Z,63.20
2022-09-06T09:29:41.469Z,61.28
2022-09-06T09:31:39.697Z,61.78
2022-09-06T09:32:39.644Z,60.39
2022-09-06T09:33:38.582Z,60.09
2022-09-06T09:34:39.451Z,60.16
2022-09-06T09:35:38.562Z,60.66
2022-09-06T09:36:38.954Z,60.72
2022-09-06T09:37:46.097Z,60.56
2022-09-06T09:38:39.530Z,59.83
2022-09-06T09:39:38.596Z,59.83
2022-09-06T09:40:39.435Z,59.74
2022-09-06T09:41:39.423Z,59.74
2022-09-06T09:42:38.485Z,58.61
2022-09-06T09:43:39.455Z,58.42
2022-09-06T09:44:38.463Z,59.21
2022-09-06T09:45:38.452Z,59.34
2022-09-06T09:46:39.566Z,59.51
2022-09-06T09:47:38.499Z,59.11
2022-09-06T09:48:38.445Z,58.72
2022-09-06T09:49:38.415Z,60.50
2022-09-06T09:50:39.438Z,58.02
2022-09-06T09:51:38.391Z,57.62
2022-09-06T09:52:40.920Z,58.02
2022-09-06T09:53:38.361Z,57.62
2022-09-06T09:54:38.489Z,57.59
2022-09-06T09:55:38.355Z,58.69
2022-09-06T09:56:38.334Z,58.88
2022-09-06T09:57:38.316Z,58.06
2022-09-06T09:58:38.309Z,56.77
2022-09-06T09:59:38.319Z,57.46
2022-09-06T10:00:38.458Z,56.87
2022-09-06T10:01:38.275Z,57.24
2022-09-06T10:02:38.264Z,58.13
2022-09-06T10:05:38.236Z,57.14
2022-09-06T10:07:39.206Z,57.24
2022-09-06T10:08:44.934Z,57.54
2022-09-06T10:09:38.948Z,56.42
2022-09-06T10:10:38.192Z,55.16
2022-09-06T10:11:38.944Z,55.43
2022-09-06T10:12:38.146Z,54.64
2022-09-06T10:13:38.146Z,55.36
2022-09-06T10:14:38.183Z,55.83
2022-09-06T10:15:42.005Z,56.65
2022-09-06T10:16:38.933Z,55.63
2022-09-06T10:17:38.118Z,55.43
2022-09-06T10:18:38.083Z,55.80
2022-09-06T10:19:38.093Z,55.51
2022-09-06T10:20:38.066Z,55.33
2022-09-06T10:21:38.060Z,55.04
2022-09-06T10:22:38.041Z,54.67
2022-09-06T10:24:39.013Z,54.77
2022-09-06T10:25:38.040Z,55.76
2022-09-06T10:26:38.028Z,56.02
2022-09-06T10:28:01.544Z,56.69
2022-09-06T10:28:38.971Z,56.99
2022-09-06T10:29:38.479Z,54.22
2022-09-06T10:30:37.962Z,55.18
2022-09-06T10:31:39.197Z,55.47
2022-09-06T10:32:37.928Z,53.23
2022-09-06T10:33:37.936Z,53.40
2022-09-06T10:34:37.910Z,53.60
2022-09-06T10:35:37.911Z,53.70
2022-09-06T10:36:37.910Z,53.60
2022-09-06T10:37:37.895Z,52.91
2022-09-06T10:38:37.906Z,53.70
2022-09-06T10:39:37.931Z,53.30
2022-09-06T10:40:37.843Z,53.50
2022-09-06T10:41:37.831Z,54.27
2022-09-06T10:42:37.841Z,53.35
2022-09-06T10:43:37.859Z,53.47
2022-09-06T10:44:37.804Z,52.98
2022-09-06T10:45:37.789Z,53.28
2022-09-06T10:46:37.824Z,52.78
2022-09-06T10:47:37.767Z,52.76
2022-09-06T10:48:37.764Z,53.35
2022-09-06T10:49:37.768Z,53.25
2022-09-06T10:50:37.762Z,52.44
2022-09-06T10:51:37.726Z,52.66
2022-09-06T10:52:37.747Z,52.86
2022-09-06T10:53:37.701Z,52.63
2022-09-06T10:54:37.702Z,53.35
2022-09-06T10:55:37.680Z,53.64
2022-09-06T10:56:37.690Z,52.76
2022-09-06T10:59:39.118Z,53.33
2022-09-06T11:00:37.624Z,52.73
2022-09-06T11:01:40.141Z,53.42
2022-09-06T11:02:37.886Z,52.91
2022-09-06T11:05:38.869Z,53.57
2022-09-06T11:06:37.581Z,51.03
2022-09-06T11:07:37.702Z,53.10
2022-09-06T11:09:38.536Z,53.69
2022-09-06T11:10:37.515Z,54.26
2022-09-06T11:11:37.544Z,51.89
2022-09-06T11:12:37.501Z,52.26
2022-09-06T11:13:37.510Z,51.57
2022-09-06T11:14:37.478Z,51.07
2022-09-06T11:15:37.503Z,50.49
2022-09-06T11:16:37.482Z,50.21
2022-09-06T11:17:37.450Z,50.41
2022-09-06T11:18:37.433Z,50.61
2022-09-06T11:19:37.427Z,51.59
2022-09-06T11:20:37.412Z,51.50
2022-09-06T11:21:37.418Z,50.90
2022-09-06T11:22:37.409Z,50.12
2022-09-06T11:23:37.393Z,49.92
2022-09-06T11:24:37.380Z,50.68
2022-09-06T11:25:37.365Z,52.56
2022-09-06T11:26:37.351Z,51.64
2022-09-06T11:27:37.364Z,51.45
2022-09-06T11:28:38.264Z,52.31
2022-09-06T11:29:38.389Z,51.62
2022-09-06T11:30:37.313Z,50.83
2022-09-06T11:32:38.296Z,50.44
2022-09-06T11:33:37.489Z,49.35
2022-09-06T11:34:37.287Z,51.52
2022-09-06T11:35:37.270Z,50.83
2022-09-06T11:36:37.237Z,50.44
2022-09-06T11:37:37.226Z,50.21
2022-09-06T11:38:37.228Z,50.42
2022-09-06T11:40:38.203Z,48.86
2022-09-06T11:41:37.363Z,49.16
2022-09-06T11:42:37.192Z,49.08
2022-09-06T11:43:37.986Z,49.75
2022-09-06T11:44:37.175Z,51.12
2022-09-06T11:45:37.163Z,50.71
2022-09-06T11:46:39.988Z,50.61
2022-09-06T11:47:39.962Z,49.99
2022-09-06T11:48:37.105Z,50.42
2022-09-06T11:49:41.456Z,49.62
2022-09-06T11:50:37.091Z,49.62
2022-09-06T11:51:37.962Z,49.80
2022-09-06T11:52:38.995Z,49.99
2022-09-06T11:53:37.486Z,51.07
2022-09-06T11:54:37.043Z,50.16
2022-09-06T11:55:37.958Z,50.44
2022-09-06T11:56:37.052Z,49.75
2022-09-06T11:57:39.964Z,47.88
2022-09-06T11:58:38.006Z,48.47
2022-09-06T11:59:36.991Z,49.43
2022-09-06T12:00:36.989Z,49.04
2022-09-06T12:01:36.968Z,48.35
2022-09-06T12:02:37.546Z,47.86
2022-09-06T12:04:39.469Z,48.15
2022-09-06T12:05:37.464Z,49.82
2022-09-06T12:06:36.940Z,47.83
2022-09-06T12:07:37.464Z,47.93
2022-09-06T12:08:37.460Z,46.36
2022-09-06T12:09:36.918Z,47.98
2022-09-06T12:10:37.459Z,47.98
2022-09-06T12:11:36.875Z,48.27
2022-09-06T12:12:36.869Z,47.69
2022-09-06T12:13:36.843Z,47.78
2022-09-06T12:14:36.833Z,47.17
2022-09-06T12:15:36.928Z,47.76
2022-09-06T12:16:36.814Z,48.05
2022-09-06T12:17:36.795Z,47.36
2022-09-06T12:18:36.814Z,48.23
2022-09-06T12:19:39.854Z,47.83
2022-09-06T12:20:37.764Z,49.01
2022-09-06T12:21:36.759Z,47.91
2022-09-06T12:22:36.744Z,49.58
2022-09-06T12:23:36.730Z,47.49
2022-09-06T12:24:37.479Z,46.71
2022-09-06T12:25:36.733Z,47.32
2022-09-06T12:26:36.702Z,47.03
2022-09-06T12:27:36.693Z,46.31
2022-09-06T12:28:37.497Z,48.37
2022-09-06T12:29:36.912Z,47.88
2022-09-06T12:30:36.684Z,48.15
2022-09-06T12:31:36.821Z,47.56
2022-09-06T12:32:37.836Z,48.33
2022-09-06T12:33:38.874Z,47.05
2022-09-06T12:34:39.112Z,48.91
2022-09-06T12:36:37.616Z,47.54
2022-09-06T12:37:36.589Z,47.15
2022-09-06T12:38:36.570Z,47.34
2022-09-06T12:39:37.534Z,48.21
2022-09-06T12:40:36.575Z,45.45
2022-09-06T12:41:41.681Z,46.34
2022-09-06T12:42:37.537Z,47.42
2022-09-06T12:43:36.582Z,47.03
2022-09-06T12:44:37.482Z,47.49
2022-09-06T12:45:37.476Z,46.36
2022-09-06T12:46:36.524Z,46.97
2022-09-06T12:47:37.478Z,46.58
2022-09-06T12:48:36.970Z,47.19
2022-09-06T12:49:37.531Z,47.29
2022-09-06T12:50:36.442Z,47.88
2022-09-06T12:51:36.460Z,47.86
2022-09-06T12:52:36.404Z,47.05
2022-09-06T12:53:36.493Z,46.14
2022-09-06T12:54:38.979Z,47.52
2022-09-06T12:55:36.391Z,46.34
2022-09-06T12:56:36.416Z,46.83
2022-09-06T12:57:36.396Z,45.92
2022-09-06T12:58:36.404Z,46.24
2022-09-06T12:59:37.385Z,46.31
2022-09-06T13:00:36.344Z,47.10
2022-09-06T13:01:36.538Z,46.53
2022-09-06T13:02:36.489Z,47.56
2022-09-06T13:03:36.311Z,47.19
2022-09-06T13:04:36.299Z,47.27
2022-09-06T13:05:36.972Z,48.23
2022-09-06T13:06:36.279Z,46.73
2022-09-06T13:07:36.987Z,47.00
2022-09-06T13:08:36.319Z,47.39
2022-09-06T13:09:38.977Z,47.08
2022-09-06T13:10:36.228Z,46.31
2022-09-06T13:11:36.232Z,45.80
2022-09-06T13:12:36.215Z,45.43
2022-09-06T13:13:36.196Z,46.41
2022-09-06T13:14:36.187Z,45.80
2022-09-06T13:15:38.117Z,46.12
2022-09-06T13:16:36.178Z,45.83
2022-09-06T13:17:36.172Z,45.80
2022-09-06T13:18:36.152Z,45.80
2022-09-06T13:19:36.135Z,45.80